createdAt,value
2022-10-27T00:00:57.917Z,153343.09
2022-10-27T00:03:25.809Z,153305.56
2022-10-27T00:05:55.126Z,153271.91
2022-10-27T00:08:23.583Z,153283.56
2022-10-27T00:10:58.866Z,153266.78
2022-10-27T00:13:27.240Z,153244.75
2022-10-27T00:15:58.873Z,153226.66
2022-10-27T00:18:26.855Z,153195.53
2022-10-27T00:21:04.560Z,153177.44
2022-10-27T00:23:33.043Z,153156.75
2022-10-27T00:26:01.613Z,153133.47
2022-10-27T00:28:30.349Z,153133.47
2022-10-27T00:30:59.717Z,153108.88
2022-10-27T00:33:27.565Z,153128.28
2022-10-27T00:35:55.635Z,153119.25
2022-10-27T00:38:25.235Z,153089.47
2022-10-27T00:40:52.993Z,153089.47
2022-10-27T00:43:26.488Z,153116.66
2022-10-27T00:45:55.599Z,153106.28
2022-10-27T00:48:25.517Z,153112.78
2022-10-27T00:50:53.319Z,153132.16
2022-10-27T00:53:21.464Z,153160.63
2022-10-27T00:55:50.894Z,153142.53
2022-10-27T00:58:21.047Z,153178.72
2022-10-27T01:00:49.257Z,153198.13
2022-10-27T01:03:22.451Z,153216.28
2022-10-27T01:05:51.149Z,153209.81
2022-10-27T01:08:19.222Z,153222.75
2022-10-27T01:10:47.002Z,153215.00
2022-10-27T01:13:16.507Z,153182.63
2022-10-27T01:15:55.000Z,153215.00
2022-10-27T01:18:31.948Z,153215.00
2022-10-27T01:21:27.031Z,153222.75
2022-10-27T01:24:19.764Z,153238.28
2022-10-27T01:26:52.295Z,153236.97
2022-10-27T01:29:47.998Z,153248.63
2022-10-27T01:32:26.325Z,153271.91
2022-10-27T01:35:02.645Z,153251.22
2022-10-27T01:37:37.285Z,153273.22
2022-10-27T01:40:09.994Z,153238.28
2022-10-27T01:42:42.983Z,153262.84
2022-10-27T01:45:13.694Z,153261.59
2022-10-27T01:47:43.500Z,153265.44
2022-10-27T01:50:11.232Z,153264.16
2022-10-27T01:52:46.116Z,153251.22
2022-10-27T01:55:18.746Z,153213.69
2022-10-27T01:58:12.672Z,153213.69
2022-10-27T02:00:51.306Z,153202.00
2022-10-27T02:03:27.287Z,153192.94
2022-10-27T02:06:03.383Z,153198.13
2022-10-27T02:08:40.930Z,153169.66
2022-10-27T02:11:11.488Z,153194.25
2022-10-27T02:13:41.985Z,153182.63
2022-10-27T02:16:13.815Z,153172.25
2022-10-27T02:18:48.416Z,153107.59
2022-10-27T02:21:17.784Z,153158.03
2022-10-27T02:23:45.592Z,153163.22
2022-10-27T02:26:23.524Z,153169.66
2022-10-27T02:28:57.100Z,153164.47
2022-10-27T02:31:29.284Z,153176.13
2022-10-27T02:33:59.113Z,153180.03
2022-10-27T02:36:27.936Z,153138.59
2022-10-27T02:38:55.708Z,153171.00
2022-10-27T02:41:23.546Z,153137.34
2022-10-27T02:43:51.355Z,153150.25
2022-10-27T02:46:19.151Z,153142.53
2022-10-27T02:48:47.008Z,153142.53
2022-10-27T02:51:16.252Z,153106.28
2022-10-27T02:53:44.094Z,153129.56
2022-10-27T02:56:12.506Z,153142.53
2022-10-27T02:58:40.438Z,153129.56
2022-10-27T03:01:08.239Z,153148.97
2022-10-27T03:03:36.137Z,153143.78
2022-10-27T03:06:03.886Z,153090.78
2022-10-27T03:08:33.113Z,153126.97
2022-10-27T03:11:00.861Z,153146.38
2022-10-27T03:13:28.670Z,153171.00
2022-10-27T03:15:56.514Z,153150.25
2022-10-27T03:18:24.316Z,153183.91
2022-10-27T03:20:52.124Z,153174.84
2022-10-27T03:23:19.855Z,153205.91
2022-10-27T03:25:49.427Z,153217.59
2022-10-27T03:28:18.225Z,153227.94
2022-10-27T03:30:46.032Z,153231.84
2022-10-27T03:33:13.767Z,153231.84
2022-10-27T03:35:41.602Z,153215.00
2022-10-27T03:38:10.899Z,153165.81
2022-10-27T03:40:38.711Z,153209.81
2022-10-27T03:43:07.868Z,153220.19
2022-10-27T03:45:36.834Z,153208.50
2022-10-27T03:48:05.857Z,153192.94
2022-10-27T03:50:34.521Z,153190.34
2022-10-27T03:53:03.522Z,153174.84
2022-10-27T03:55:31.918Z,153177.44
2022-10-27T03:58:00.093Z,153169.66
2022-10-27T04:00:31.525Z,153142.53
2022-10-27T04:02:59.568Z,153116.66
2022-10-27T04:05:27.394Z,153138.59
2022-10-27T04:07:55.215Z,153117.91
2022-10-27T04:10:23.014Z,153103.69
2022-10-27T04:12:51.328Z,153124.44
2022-10-27T04:15:20.365Z,153083.00
2022-10-27T04:17:49.801Z,153101.16
2022-10-27T04:20:17.823Z,153077.81
2022-10-27T04:22:45.645Z,153059.72
2022-10-27T04:25:13.508Z,153055.88
2022-10-27T04:27:41.280Z,153055.88
2022-10-27T04:30:10.021Z,153052.00
2022-10-27T04:32:38.270Z,153058.47
2022-10-27T04:35:08.709Z,153058.47
2022-10-27T04:37:36.666Z,153073.94
2022-10-27T04:40:04.888Z,153079.13
2022-10-27T04:42:33.948Z,153053.28
2022-10-27T04:45:01.739Z,153040.38
2022-10-27T04:47:29.891Z,153046.81
2022-10-27T04:49:57.655Z,153008.00
2022-10-27T04:52:26.947Z,153015.78
2022-10-27T04:54:54.754Z,153006.72
2022-10-27T04:57:22.555Z,153005.41
2022-10-27T04:59:50.457Z,152992.50
2022-10-27T05:02:18.254Z,152982.13
2022-10-27T05:04:46.209Z,153009.31
2022-10-27T05:07:14.024Z,152998.94
2022-10-27T05:09:43.190Z,152964.03
2022-10-27T05:12:11.008Z,152958.88
2022-10-27T05:14:38.804Z,152948.56
2022-10-27T05:17:06.579Z,152938.19
2022-10-27T05:19:34.473Z,152902.03
2022-10-27T05:22:02.233Z,152896.84
2022-10-27T05:24:29.977Z,152914.91
2022-10-27T05:26:59.228Z,152914.91
2022-10-27T05:29:27.176Z,152898.09
2022-10-27T05:31:55.919Z,152918.84
2022-10-27T05:34:23.716Z,152904.59
2022-10-27T05:36:51.503Z,152895.56
2022-10-27T05:39:19.220Z,152849.00
2022-10-27T05:41:46.970Z,152873.56
2022-10-27T05:44:16.167Z,152854.16
2022-10-27T05:46:43.952Z,152830.91
2022-10-27T05:49:11.847Z,152877.44
2022-10-27T05:51:39.737Z,152814.09
2022-10-27T05:54:07.681Z,152834.81
2022-10-27T05:56:35.565Z,152827.06
2022-10-27T06:01:32.676Z,152786.94
2022-10-27T06:04:00.539Z,152780.47
2022-10-27T06:06:28.707Z,152763.69
2022-10-27T06:08:56.581Z,152757.22
2022-10-27T06:11:24.443Z,152735.25
2022-10-27T06:13:52.993Z,152739.16
2022-10-27T06:16:21.486Z,152710.72
2022-10-27T06:18:50.726Z,152724.94
2022-10-27T06:21:18.582Z,152700.38
2022-10-27T06:23:48.929Z,152718.44
2022-10-27T06:26:17.190Z,152767.53
2022-10-27T06:28:45.027Z,152767.53
2022-10-27T06:31:12.834Z,152785.66
2022-10-27T06:33:40.599Z,152794.69
2022-10-27T06:36:09.989Z,152811.56
2022-10-27T06:38:40.263Z,152795.97
2022-10-27T06:41:10.100Z,152812.84
2022-10-27T06:43:37.955Z,152818.00
2022-10-27T06:46:05.882Z,152819.28
2022-10-27T06:48:33.966Z,152864.53
2022-10-27T06:51:01.798Z,152841.28
2022-10-27T06:53:31.185Z,152877.44
2022-10-27T06:55:59.997Z,152902.03
2022-10-27T06:58:27.829Z,152902.03
2022-10-27T07:00:55.906Z,152907.19
2022-10-27T07:03:23.663Z,152899.44
2022-10-27T07:05:51.403Z,152886.47
2022-10-27T07:08:19.190Z,152938.19
2022-10-27T07:10:48.471Z,152955.00
2022-10-27T07:13:16.275Z,152980.88
2022-10-27T07:15:44.086Z,152952.41
2022-10-27T07:18:12.290Z,153037.78
2022-10-27T07:20:40.526Z,153048.09
2022-10-27T07:23:10.971Z,153080.41
2022-10-27T07:25:39.827Z,153068.78
2022-10-27T07:28:09.150Z,153155.44
2022-10-27T07:30:38.989Z,153205.91
2022-10-27T07:33:06.902Z,153264.16
2022-10-27T07:35:34.907Z,153305.56
2022-10-27T07:38:02.771Z,153332.72
2022-10-27T07:40:33.160Z,153400.06
2022-10-27T07:43:06.823Z,153444.06
2022-10-27T07:45:38.707Z,153519.16
2022-10-27T07:48:07.961Z,153587.81
2022-10-27T07:50:35.841Z,153647.41
2022-10-27T07:53:04.248Z,153679.78
2022-10-27T07:55:33.619Z,153736.81
2022-10-27T07:58:02.818Z,153774.38
2022-10-27T08:00:31.658Z,153871.53
2022-10-27T08:03:02.674Z,153905.31
2022-10-27T08:05:30.746Z,153942.91
2022-10-27T08:07:59.990Z,153962.31
2022-10-27T08:10:28.341Z,153979.19
2022-10-27T08:12:56.151Z,153993.44
2022-10-27T08:15:24.306Z,154014.16
2022-10-27T08:17:53.915Z,154059.56
2022-10-27T08:20:23.879Z,154098.44
2022-10-27T08:22:56.920Z,154125.72
2022-10-27T08:25:25.506Z,154141.25
2022-10-27T08:27:53.686Z,154176.28
2022-10-27T08:30:22.797Z,154233.41
2022-10-27T08:32:51.655Z,154228.22
2022-10-27T08:35:19.716Z,154282.72
2022-10-27T08:37:49.090Z,154313.81
2022-10-27T08:40:17.258Z,154352.78
2022-10-27T08:42:55.002Z,154389.09
2022-10-27T08:45:28.343Z,154409.84
2022-10-27T08:47:58.492Z,154454.03
2022-10-27T08:50:29.200Z,154504.69
2022-10-27T08:53:04.952Z,154537.13
2022-10-27T08:55:37.828Z,154574.78
2022-10-27T08:58:12.414Z,154581.25
2022-10-27T09:00:52.969Z,154609.84
2022-10-27T09:03:45.756Z,154659.19
2022-10-27T09:06:19.279Z,154691.63
2022-10-27T09:08:58.065Z,154721.53
2022-10-27T09:11:37.175Z,154768.31
2022-10-27T09:14:23.675Z,154796.88
2022-10-27T09:16:55.684Z,154799.50
2022-10-27T09:19:28.563Z,154867.03
2022-10-27T09:21:56.466Z,154869.66
2022-10-27T09:24:30.369Z,154844.97
2022-10-27T09:27:00.300Z,154913.81
2022-10-27T09:29:31.282Z,154906.06
2022-10-27T09:32:03.809Z,154946.34
2022-10-27T09:34:39.265Z,154993.19
2022-10-27T09:37:14.055Z,154995.78
2022-10-27T09:39:47.517Z,154997.06
2022-10-27T09:42:16.019Z,155025.66
2022-10-27T09:44:49.284Z,155075.06
2022-10-27T09:47:17.187Z,155103.69
2022-10-27T09:49:48.541Z,155154.38
2022-10-27T09:52:21.559Z,155142.66
2022-10-27T09:54:55.843Z,155173.88
2022-10-27T09:57:29.131Z,155181.66
2022-10-27T10:00:00.839Z,155205.09
2022-10-27T10:02:31.441Z,155196.00
2022-10-27T10:05:00.959Z,155233.72
2022-10-27T10:07:36.027Z,155267.56
2022-10-27T10:10:09.236Z,155259.72
2022-10-27T10:12:37.023Z,155290.97
2022-10-27T10:15:20.615Z,155313.03
2022-10-27T10:17:57.099Z,155311.75
2022-10-27T10:20:31.742Z,155314.38
2022-10-27T10:23:00.210Z,155293.56
2022-10-27T10:25:33.126Z,155343.00
2022-10-27T10:28:03.828Z,155371.63
2022-10-27T10:30:35.101Z,155379.41
2022-10-27T10:33:06.070Z,155380.72
2022-10-27T10:35:45.714Z,155385.91
2022-10-27T10:38:34.609Z,155382.00
2022-10-27T10:41:12.114Z,155356.00
2022-10-27T10:43:40.556Z,155389.81
2022-10-27T10:46:18.112Z,155396.31
2022-10-27T10:48:51.425Z,155370.31
2022-10-27T10:54:00.727Z,155426.28
2022-10-27T10:56:32.075Z,155469.25
2022-10-27T10:59:06.158Z,155501.75
2022-10-27T11:01:46.997Z,155519.97
2022-10-27T11:04:18.134Z,155486.16
2022-10-27T11:07:05.792Z,155540.84
2022-10-27T11:09:39.373Z,155570.75
2022-10-27T11:12:21.624Z,155559.03
2022-10-27T11:14:54.651Z,155522.56
2022-10-27T11:17:26.668Z,155527.78
2022-10-27T11:19:57.032Z,155548.59
2022-10-27T11:22:27.467Z,155546.00
2022-10-27T11:25:01.768Z,155513.47
2022-10-27T11:27:39.957Z,155549.94
2022-10-27T11:30:21.143Z,155553.81
2022-10-27T11:32:58.910Z,155536.91
2022-10-27T11:35:31.236Z,155465.34
2022-10-27T11:38:05.884Z,155536.91
2022-10-27T11:40:44.382Z,155586.34
2022-10-27T11:43:22.520Z,155651.47
2022-10-27T11:45:57.108Z,155618.88
2022-10-27T11:48:28.467Z,155652.81
2022-10-27T11:51:02.269Z,155686.66
2022-10-27T11:53:29.855Z,155694.44
2022-10-27T11:56:20.896Z,155699.66
2022-10-27T11:59:01.104Z,155668.41
2022-10-27T12:01:45.716Z,155707.50
2022-10-27T12:04:23.888Z,155669.72
2022-10-27T12:07:02.002Z,155720.50
2022-10-27T12:09:41.175Z,155690.56
2022-10-27T12:12:15.986Z,155711.38
2022-10-27T12:14:54.896Z,155750.41
2022-10-27T12:17:37.698Z,155708.78
2022-10-27T12:20:08.276Z,155665.78
2022-10-27T12:22:40.035Z,155726.97
2022-10-27T12:25:12.411Z,155733.53
2022-10-27T12:27:43.131Z,155707.50
2022-10-27T12:30:17.272Z,155693.16
2022-10-27T12:32:50.850Z,155723.09
2022-10-27T12:35:23.934Z,155720.50
2022-10-27T12:37:59.602Z,155660.63
2022-10-27T12:40:34.873Z,155741.31
2022-10-27T12:43:13.160Z,155798.63
2022-10-27T12:46:07.642Z,155772.56
2022-10-27T12:48:44.059Z,155758.25
2022-10-27T12:51:21.764Z,155796.00
2022-10-27T12:53:54.426Z,155819.44
2022-10-27T12:56:34.679Z,155827.28
2022-10-27T12:59:16.896Z,155805.13
2022-10-27T13:01:55.694Z,155867.72
2022-10-27T13:04:47.015Z,155846.84
2022-10-27T13:07:39.833Z,155872.88
2022-10-27T13:10:32.303Z,155883.31
2022-10-27T13:13:37.118Z,155891.16
2022-10-27T13:16:14.286Z,155743.91
2022-10-27T13:19:11.226Z,155767.34
2022-10-27T13:21:45.489Z,155769.97
2022-10-27T13:24:25.046Z,155712.66
2022-10-27T13:27:00.587Z,155714.00
2022-10-27T13:29:35.275Z,155717.88
2022-10-27T13:32:40.108Z,155751.75
2022-10-27T13:35:30.137Z,155773.84
2022-10-27T13:38:25.670Z,155777.78
2022-10-27T13:40:55.741Z,155767.34
2022-10-27T13:43:58.082Z,155712.66
2022-10-27T13:47:10.258Z,155728.31
2022-10-27T13:49:55.100Z,155747.81
2022-10-27T13:52:28.909Z,155755.63
2022-10-27T13:55:30.233Z,155775.19
2022-10-27T13:58:19.934Z,155785.56
2022-10-27T14:01:14.860Z,155738.69
2022-10-27T14:04:11.558Z,155750.41
2022-10-27T14:06:41.708Z,155743.91
2022-10-27T14:09:24.431Z,155687.94
2022-10-27T14:11:56.511Z,155733.53
2022-10-27T14:14:29.738Z,155730.94
2022-10-27T14:17:00.913Z,155736.09
2022-10-27T14:19:32.776Z,155749.13
2022-10-27T14:22:01.194Z,155726.97
2022-10-27T14:24:35.321Z,155663.19
2022-10-27T14:27:04.353Z,155673.63
2022-10-27T14:29:36.128Z,155719.22
2022-10-27T14:32:16.214Z,155733.53
2022-10-27T14:34:44.209Z,155652.81
2022-10-27T14:37:18.748Z,155674.94
2022-10-27T14:39:50.190Z,155600.66
2022-10-27T14:42:24.908Z,155624.16
2022-10-27T14:44:58.955Z,155577.25
2022-10-27T14:50:00.591Z,155491.38
2022-10-27T14:52:34.832Z,155521.28
2022-10-27T14:55:04.543Z,155500.47
2022-10-27T14:57:35.125Z,155505.66
2022-10-27T15:00:06.067Z,155475.72
2022-10-27T15:02:34.178Z,155473.13
2022-10-27T15:05:15.211Z,155447.09
2022-10-27T15:07:46.944Z,155405.44
2022-10-27T15:10:20.128Z,155421.06
2022-10-27T15:12:52.507Z,155379.41
2022-10-27T15:15:21.191Z,155395.03
2022-10-27T15:17:51.529Z,155344.28
2022-10-27T15:20:19.960Z,155329.97
2022-10-27T15:22:52.167Z,155318.25
2022-10-27T15:25:23.226Z,155345.59
2022-10-27T15:27:51.285Z,155329.97
2022-10-27T15:30:21.647Z,155294.84
2022-10-27T15:32:50.196Z,155289.63
2022-10-27T15:35:33.192Z,155270.16
2022-10-27T15:38:02.077Z,155288.34
2022-10-27T15:40:51.046Z,155271.44
2022-10-27T15:43:23.695Z,155258.47
2022-10-27T15:45:52.264Z,155267.56
2022-10-27T15:48:33.505Z,155267.56
2022-10-27T15:51:03.315Z,155249.34
2022-10-27T15:53:34.539Z,155229.84
2022-10-27T15:56:08.020Z,155218.13
2022-10-27T15:58:37.387Z,155216.81
2022-10-27T16:01:09.296Z,155223.34
2022-10-27T16:03:40.434Z,155232.44
2022-10-27T16:06:26.241Z,155207.72
2022-10-27T16:08:54.760Z,155198.63
2022-10-27T16:11:25.474Z,155181.66
2022-10-27T16:13:57.104Z,155193.41
2022-10-27T16:16:25.933Z,155168.66
2022-10-27T16:18:54.496Z,155153.09
2022-10-27T16:21:25.345Z,155169.94
2022-10-27T16:23:54.528Z,155168.66
2022-10-27T16:26:27.429Z,155141.38
2022-10-27T16:29:00.692Z,155164.78
2022-10-27T16:31:30.544Z,155166.06
2022-10-27T16:33:59.191Z,155132.25
2022-10-27T16:36:27.004Z,155072.47
2022-10-27T16:38:54.807Z,155107.56
2022-10-27T16:41:28.466Z,155106.22
2022-10-27T16:43:56.878Z,155127.06
2022-10-27T16:46:24.731Z,155106.22
2022-10-27T16:48:52.455Z,155091.97
2022-10-27T16:51:20.393Z,155141.38
2022-10-27T16:53:49.225Z,155090.66
2022-10-27T16:56:17.074Z,155120.53
2022-10-27T16:58:46.392Z,155062.03
2022-10-27T17:01:16.943Z,155111.44
2022-10-27T17:03:45.476Z,155125.75
2022-10-27T17:06:14.032Z,155127.06
2022-10-27T17:08:41.948Z,155101.06
2022-10-27T17:11:11.534Z,155095.84
2022-10-27T17:13:39.593Z,155090.66
2022-10-27T17:16:10.701Z,155080.28
2022-10-27T17:18:38.662Z,155078.94
2022-10-27T17:21:06.757Z,155029.56
2022-10-27T17:23:35.861Z,155094.53
2022-10-27T17:26:04.824Z,155045.13
2022-10-27T17:28:33.551Z,155069.84
2022-10-27T17:31:03.989Z,155045.13
2022-10-27T17:33:33.664Z,155049.06
2022-10-27T17:36:05.586Z,155078.94
2022-10-27T17:38:33.546Z,155097.13
2022-10-27T17:41:02.171Z,155085.44
2022-10-27T17:43:36.048Z,155091.97
2022-10-27T17:46:07.165Z,155093.25
2022-10-27T17:48:38.275Z,155060.75
2022-10-27T17:51:07.955Z,155041.25
2022-10-27T17:53:36.331Z,155063.38
2022-10-27T17:56:06.510Z,155085.44
2022-10-27T17:58:36.289Z,155078.94
2022-10-27T18:01:05.848Z,155086.75
2022-10-27T18:03:35.842Z,155080.28
2022-10-27T18:06:07.222Z,155073.75
2022-10-27T18:08:35.529Z,155093.25
2022-10-27T18:11:04.923Z,155099.75
2022-10-27T18:13:34.050Z,155069.84
2022-10-27T18:16:02.022Z,155081.56
2022-10-27T18:18:30.044Z,155111.44
2022-10-27T18:21:06.228Z,155097.13
2022-10-27T18:23:34.665Z,155085.44
2022-10-27T18:26:03.245Z,155082.84
2022-10-27T18:28:31.620Z,155062.03
2022-10-27T18:31:03.593Z,155010.03
2022-10-27T18:33:32.083Z,155013.97
2022-10-27T18:36:07.100Z,155056.88
2022-10-27T18:38:35.902Z,155041.25
2022-10-27T18:41:06.105Z,154989.25
2022-10-27T18:43:34.485Z,154999.66
2022-10-27T18:46:04.413Z,154991.84
2022-10-27T18:48:33.566Z,154935.94
2022-10-27T18:51:03.308Z,154960.66
2022-10-27T18:53:34.705Z,154982.75
2022-10-27T18:56:03.150Z,154965.84
2022-10-27T18:58:31.527Z,154984.09
2022-10-27T19:01:03.677Z,154959.38
2022-10-27T19:03:31.731Z,154941.13
2022-10-27T19:06:00.028Z,154935.94
2022-10-27T19:08:28.026Z,154850.19
2022-10-27T19:11:02.901Z,154869.66
2022-10-27T19:13:30.742Z,154847.59
2022-10-27T19:16:02.449Z,154874.84
2022-10-27T19:18:30.848Z,154848.88
2022-10-27T19:20:59.716Z,154812.50
2022-10-27T19:23:28.419Z,154828.09
2022-10-27T19:26:05.222Z,154829.34
2022-10-27T19:28:33.294Z,154802.09
2022-10-27T19:31:01.132Z,154795.63
2022-10-27T19:33:30.600Z,154770.91
2022-10-27T19:36:04.734Z,154729.34
2022-10-27T19:38:32.872Z,154715.06
2022-10-27T19:41:02.171Z,154708.53
2022-10-27T19:43:31.679Z,154668.25
2022-10-27T19:45:59.637Z,154609.84
2022-10-27T19:48:27.459Z,154635.81
2022-10-27T19:50:55.280Z,154578.66
2022-10-27T19:53:23.671Z,154634.47
2022-10-27T19:55:51.648Z,154646.16
2022-10-27T19:58:20.918Z,154630.59
2022-10-27T20:00:48.764Z,154666.97
2022-10-27T20:03:16.538Z,154633.19
2022-10-27T20:05:53.573Z,154669.59
2022-10-27T20:08:21.354Z,154661.78
2022-10-27T20:10:49.341Z,154661.78
2022-10-27T20:13:17.413Z,154705.94
2022-10-27T20:15:46.611Z,154692.97
2022-10-27T20:18:14.356Z,154690.34
2022-10-27T20:20:42.230Z,154692.97
2022-10-27T20:23:09.942Z,154669.59
2022-10-27T20:25:37.671Z,154648.75
2022-10-27T20:28:05.787Z,154653.97
2022-10-27T20:30:33.546Z,154666.97
2022-10-27T20:33:02.668Z,154698.13
2022-10-27T20:35:30.476Z,154653.97
2022-10-27T20:37:58.197Z,154672.13
2022-10-27T20:40:26.227Z,154679.94
2022-10-27T20:42:54.312Z,154673.47
2022-10-27T20:45:22.506Z,154669.59
2022-10-27T20:47:50.245Z,154699.44
2022-10-27T20:50:20.199Z,154695.50
2022-10-27T20:52:47.936Z,154656.56
2022-10-27T20:55:15.859Z,154663.06
2022-10-27T20:57:43.589Z,154663.06
2022-10-27T21:00:12.809Z,154691.63
2022-10-27T21:02:41.989Z,154653.97
2022-10-27T21:05:10.213Z,154673.47
2022-10-27T21:07:39.645Z,154669.59
2022-10-27T21:10:08.955Z,154653.97
2022-10-27T21:12:38.250Z,154665.66
2022-10-27T21:15:06.798Z,154660.44
2022-10-27T21:17:34.544Z,154661.78
2022-10-27T21:20:02.341Z,154666.97
2022-10-27T21:22:30.062Z,154686.44
2022-10-27T21:24:59.378Z,154666.97
2022-10-27T21:27:27.130Z,154669.59
2022-10-27T21:29:55.679Z,154681.28
2022-10-27T21:32:23.491Z,154687.75
2022-10-27T21:34:51.172Z,154664.38
2022-10-27T21:37:19.027Z,154685.16
2022-10-27T21:39:46.772Z,154668.25
2022-10-27T21:42:17.733Z,154669.59
2022-10-27T21:44:45.507Z,154681.28
2022-10-27T21:47:13.247Z,154669.59
2022-10-27T21:49:41.055Z,154651.38
2022-10-27T21:52:08.784Z,154663.06
2022-10-27T21:54:36.692Z,154663.06
2022-10-27T21:57:04.724Z,154682.56
2022-10-27T21:59:33.863Z,154685.16
2022-10-27T22:02:02.088Z,154718.94
2022-10-27T22:04:29.996Z,154711.13
2022-10-27T22:06:57.773Z,154708.53
2022-10-27T22:09:25.848Z,154717.66
2022-10-27T22:11:53.596Z,154718.94
2022-10-27T22:14:21.370Z,154733.25
2022-10-27T22:16:50.559Z,154747.53
2022-10-27T22:19:20.904Z,154759.22
2022-10-27T22:21:50.477Z,154733.25
2022-10-27T22:24:18.224Z,154746.25
2022-10-27T22:26:46.005Z,154718.94
2022-10-27T22:29:13.727Z,154692.97
2022-10-27T22:31:41.608Z,154708.53
2022-10-27T22:34:11.867Z,154717.66
2022-10-27T22:36:39.947Z,154728.06
2022-10-27T22:39:07.760Z,154747.53
2022-10-27T22:41:36.336Z,154722.88
2022-10-27T22:44:05.376Z,154707.19
2022-10-27T22:46:34.564Z,154707.19
2022-10-27T22:49:02.375Z,154691.63
2022-10-27T22:51:31.776Z,154700.72
2022-10-27T22:54:00.466Z,154679.94
2022-10-27T22:56:30.307Z,154682.56
2022-10-27T22:59:00.647Z,154661.78
2022-10-27T23:01:31.359Z,154681.28
2022-10-27T23:04:01.291Z,154665.66
2022-10-27T23:06:32.887Z,154681.28
2022-10-27T23:09:02.338Z,154661.78
2022-10-27T23:11:32.402Z,154720.28
2022-10-27T23:14:00.211Z,154705.94
2022-10-27T23:16:29.124Z,154691.63
2022-10-27T23:18:57.984Z,154686.44
2022-10-27T23:21:26.086Z,154676.06
2022-10-27T23:23:56.824Z,154681.28
2022-10-27T23:26:26.464Z,154679.94
2022-10-27T23:28:55.717Z,154674.75
2022-10-27T23:31:24.731Z,154678.66
2022-10-27T23:33:53.713Z,154665.66
2022-10-27T23:36:21.767Z,154683.84
2022-10-27T23:38:49.850Z,154666.97
2022-10-27T23:41:19.011Z,154705.94
2022-10-27T23:43:50.166Z,154695.50
2022-10-27T23:46:18.332Z,154687.75
2022-10-27T23:48:46.241Z,154709.81
2022-10-27T23:51:14.175Z,154755.34
2022-10-27T23:53:42.440Z,154744.91
2022-10-27T23:56:11.605Z,154781.31
2022-10-27T23:58:42.628Z,154783.91
